Time;durP1;ratioP1;P1;durP2;ratioP2;P2;SDS_P1;SDS_P2;PMS_P1;PMS_P2;Temp;Humidity;BMP_temperature;BMP_pressure;BME280_temperature;BME280_humidity;BME280_pressure;Samples;Min_cycle;Max_cycle;Signal;HPM_P1;HPM_P2
2022/10/07 00:01:59;;;;;;;12.57;2.55;;;7.40;99.90;;;5.99;100.00;102007.13;4970406;28;20035;-87
2022/10/07 00:04:25;;;;;;;10.23;2.83;;;7.40;99.90;;;6.04;100.00;102002.13;4968266;28;20035;-87
2022/10/07 00:06:53;;;;;;;9.60;2.53;;;7.40;99.90;;;6.23;100.00;102005.72;4960953;28;20505;-87
2022/10/07 00:09:19;;;;;;;8.20;2.25;;;7.50;99.90;;;6.36;100.00;102006.16;4957777;28;20039;-88
2022/10/07 00:11:45;;;;;;;9.98;2.75;;;7.70;99.90;;;6.54;100.00;102005.31;4962441;28;20061;-87
2022/10/07 00:14:11;;;;;;;8.70;2.75;;;7.80;99.90;;;6.62;100.00;102002.66;4957144;28;20042;-85
2022/10/07 00:16:40;;;;;;;12.65;2.45;;;7.90;99.90;;;6.68;100.00;102009.31;4958689;28;20482;-87
2022/10/07 00:19:11;;;;;;;12.85;2.58;;;8.00;99.90;;;6.54;100.00;102010.75;4964617;28;20394;-88
2022/10/07 00:21:38;;;;;;;8.82;2.35;;;7.90;99.90;;;6.47;100.00;102003.22;4966842;28;20030;-89
2022/10/07 00:24:06;;;;;;;8.85;2.60;;;7.80;99.90;;;6.50;100.00;102004.78;4968667;28;20045;-87
2022/10/07 00:26:35;;;;;;;8.82;2.78;;;7.80;99.90;;;6.52;100.00;102005.50;4964152;28;20050;-87
2022/10/07 00:29:02;;;;;;;7.22;2.10;;;7.80;99.90;;;6.47;100.00;102003.22;4966749;28;20046;-86
2022/10/07 00:31:32;;;;;;;9.30;2.45;;;7.80;99.90;;;6.34;100.00;101997.34;4967010;28;20031;-86
2022/10/07 00:33:58;;;;;;;11.55;2.40;;;7.70;99.90;;;6.23;100.00;101995.72;4962682;28;20050;-87
2022/10/07 00:36:30;;;;;;;9.35;2.42;;;7.60;99.90;;;6.13;100.00;101987.69;4966376;28;20035;-88
2022/10/07 00:39:09;;;;;;;9.15;2.35;;;7.50;99.90;;;6.07;100.00;101982.88;4962390;28;20038;-87
2022/10/07 00:41:58;;;;;;;12.38;2.35;;;7.50;99.90;;;6.01;100.00;101976.22;4964916;28;20177;-88
2022/10/07 00:44:30;;;;;;;13.20;2.60;;;7.40;99.90;;;5.99;100.00;101971.91;4962440;28;20375;-89
2022/10/07 00:47:03;;;;;;;6.53;2.63;;;7.40;99.90;;;5.98;100.00;101972.94;4968292;28;20034;-87
2022/10/07 00:49:36;;;;;;;10.93;2.72;;;7.40;99.90;;;5.94;100.00;101966.13;4964318;28;20061;-86
2022/10/07 00:52:03;;;;;;;7.72;2.22;;;7.30;99.90;;;5.87;100.00;101974.88;4963167;28;20056;-87
2022/10/07 00:54:29;;;;;;;6.25;2.72;;;7.20;99.90;;;5.85;100.00;101960.63;4966128;28;20493;-86
2022/10/07 00:56:54;;;;;;;10.02;2.22;;;7.20;99.90;;;5.82;100.00;101958.19;4968591;28;20041;-86
2022/10/07 00:59:20;;;;;;;11.35;2.60;;;7.20;99.90;;;5.80;100.00;101952.09;4967141;28;20045;-86
2022/10/07 01:01:46;;;;;;;6.75;2.30;;;7.20;99.90;;;5.73;100.00;101954.56;4965564;28;20188;-86
2022/10/07 01:04:14;;;;;;;7.00;2.38;;;7.10;99.90;;;5.65;100.00;101940.09;4963425;28;20117;-87
2022/10/07 01:06:40;;;;;;;7.10;2.17;;;7.10;99.90;;;5.68;100.00;101945.19;4967006;28;20118;-87
2022/10/07 01:09:09;;;;;;;6.07;2.08;;;7.10;99.90;;;5.67;100.00;101944.34;4972104;28;20026;-87
2022/10/07 01:12:04;;;;;;;7.60;1.85;;;7.10;99.90;;;5.66;100.00;101944.50;4988673;28;20637;-87
2022/10/07 01:14:45;;;;;;;8.25;2.10;;;7.00;99.90;;;5.66;100.00;101936.38;4967419;28;20026;-87
2022/10/07 01:17:45;;;;;;;9.13;2.00;;;7.00;99.90;;;5.60;100.00;101938.69;4962026;28;20035;-86
2022/10/07 01:20:30;;;;;;;7.55;1.88;;;7.00;99.90;;;5.60;100.00;101925.16;4966523;28;20171;-87
2022/10/07 01:23:08;;;;;;;5.78;1.90;;;7.00;99.90;;;5.56;100.00;101917.50;4962808;28;20781;-86
2022/10/07 01:26:06;;;;;;;9.35;2.38;;;7.00;99.90;;;5.59;100.00;101923.47;4961507;28;20737;-87
2022/10/07 01:28:55;;;;;;;4.55;1.88;;;6.90;99.90;;;5.55;100.00;101916.63;4972055;28;20295;-82
2022/10/07 01:31:41;;;;;;;7.47;2.22;;;6.90;99.90;;;5.53;100.00;101918.63;4964168;28;20038;-87
2022/10/07 01:34:12;;;;;;;7.38;1.88;;;6.90;99.90;;;5.45;100.00;101905.00;4965413;28;20047;-86
2022/10/07 01:36:41;;;;;;;5.50;2.10;;;6.90;99.90;;;5.36;100.00;101905.94;4963054;28;20045;-86
2022/10/07 01:39:12;;;;;;;4.32;1.50;;;6.80;99.90;;;5.25;100.00;101910.53;4960265;28;20042;-86
2022/10/07 01:41:40;;;;;;;6.05;1.70;;;6.70;99.90;;;5.17;100.00;101899.63;4959689;28;20043;-86
2022/10/07 01:44:08;;;;;;;5.90;2.08;;;6.60;99.90;;;5.17;100.00;101902.31;4965168;28;20043;-87
2022/10/07 01:46:36;;;;;;;9.15;2.53;;;6.50;99.90;;;5.07;100.00;101885.31;4962617;28;20026;-87
2022/10/07 01:49:06;;;;;;;8.38;2.10;;;6.50;99.90;;;5.07;100.00;101896.13;4961426;28;20034;-86
2022/10/07 01:51:37;;;;;;;6.13;1.83;;;6.50;99.90;;;4.96;100.00;101881.78;4981162;28;20046;-86
2022/10/07 01:54:24;;;;;;;10.13;2.38;;;6.40;99.90;;;4.98;100.00;101881.63;4980050;28;20050;-86
2022/10/07 01:57:04;;;;;;;7.25;2.42;;;6.40;99.90;;;4.94;100.00;101885.66;4969640;28;20402;-86
2022/10/07 02:00:04;;;;;;;8.98;1.75;;;6.40;99.90;;;4.72;100.00;101855.28;4959694;28;20042;-86
2022/10/07 02:03:13;;;;;;;10.88;2.50;;;6.30;99.90;;;4.80;100.00;101878.88;4962611;28;20031;-85
2022/10/07 02:06:23;;;;;;;10.73;2.22;;;6.20;99.90;;;4.68;100.00;101868.22;4961694;28;20042;-86
2022/10/07 02:08:54;;;;;;;7.68;1.83;;;6.10;99.90;;;4.64;100.00;101874.06;4967227;28;20035;-87
2022/10/07 02:11:28;;;;;;;11.52;2.40;;;6.10;99.90;;;4.55;100.00;101863.16;4963407;28;20367;-88
2022/10/07 02:14:15;;;;;;;11.43;2.20;;;6.00;99.90;;;4.47;100.00;101860.34;4964653;28;20044;-87
2022/10/07 02:16:50;;;;;;;7.10;2.00;;;6.00;99.90;;;4.37;100.00;101859.50;4965458;28;20033;-87
2022/10/07 02:19:26;;;;;;;5.95;2.10;;;5.80;99.90;;;4.25;100.00;101850.72;4966264;28;20129;-88
2022/10/07 02:21:56;;;;;;;5.53;2.17;;;5.80;99.90;;;4.17;100.00;101854.97;4959365;28;20470;-85
2022/10/07 02:24:28;;;;;;;8.07;2.00;;;5.70;99.90;;;4.01;100.00;101849.34;4963493;28;20054;-87
2022/10/07 02:27:00;;;;;;;7.20;2.30;;;5.50;99.90;;;3.88;100.00;101857.75;4961637;28;20026;-87
2022/10/07 02:29:31;;;;;;;7.50;2.05;;;5.30;99.90;;;3.73;100.00;101855.44;4965505;28;20126;-86
2022/10/07 02:32:01;;;;;;;8.30;3.13;;;5.20;99.90;;;3.65;100.00;101854.44;4972068;28;20035;-86
2022/10/07 02:34:30;;;;;;;9.65;2.28;;;5.10;99.90;;;3.57;100.00;101852.44;4961157;28;20225;-85
2022/10/07 02:37:13;;;;;;;4.63;1.95;;;5.00;99.90;;;3.59;100.00;101853.19;4964820;28;20478;-85
2022/10/07 02:39:42;;;;;;;7.50;2.30;;;5.00;99.90;;;3.69;100.00;101847.78;4963621;28;20509;-85
2022/10/07 02:42:51;;;;;;;10.40;2.53;;;5.20;99.90;;;3.92;100.00;101844.78;4963775;28;20163;-85
2022/10/07 02:45:31;;;;;;;11.70;2.33;;;5.30;99.90;;;4.13;100.00;101848.19;4955209;28;20458;-85
2022/10/07 02:48:11;;;;;;;9.02;2.53;;;5.50;99.90;;;4.29;100.00;101846.72;4961729;28;20038;-86
2022/10/07 02:50:42;;;;;;;10.50;2.85;;;5.70;99.90;;;4.27;100.00;101838.75;4964301;28;20057;-86
2022/10/07 02:53:12;;;;;;;7.97;2.15;;;5.70;99.90;;;4.26;100.00;101828.94;4967596;28;20501;-85
2022/10/07 02:55:40;;;;;;;5.68;2.22;;;5.70;99.90;;;4.30;100.00;101830.34;4982214;28;20023;-86
2022/10/07 02:58:11;;;;;;;7.70;2.55;;;5.70;99.90;;;4.30;100.00;101824.13;4967283;28;20089;-85
2022/10/07 03:00:46;;;;;;;7.32;2.72;;;5.70;99.90;;;4.38;100.00;101832.34;4959095;28;20031;-86
2022/10/07 03:03:13;;;;;;;8.25;2.20;;;5.80;99.90;;;4.44;100.00;101825.50;4978143;28;20027;-85
2022/10/07 03:05:48;;;;;;;8.82;2.45;;;5.90;99.90;;;4.44;100.00;101826.34;4980522;28;20042;-85
2022/10/07 03:08:15;;;;;;;12.48;2.70;;;5.90;99.90;;;4.53;100.00;101838.13;4969766;28;20042;-86
2022/10/07 03:10:42;;;;;;;5.73;2.60;;;5.90;99.90;;;4.60;100.00;101830.28;4968319;28;20089;-86
2022/10/07 03:13:10;;;;;;;10.13;3.13;;;6.00;99.90;;;4.61;100.00;101818.47;4969336;28;20504;-86
2022/10/07 03:15:39;;;;;;;14.05;2.80;;;6.00;99.90;;;4.82;100.00;101829.03;4964600;28;20497;-88
2022/10/07 03:18:24;;;;;;;9.93;2.85;;;6.10;99.90;;;4.87;100.00;101820.47;4987931;28;20598;-88
2022/10/07 03:20:54;;;;;;;9.50;2.80;;;6.30;99.90;;;4.92;100.00;101820.88;4968841;28;20172;-86
2022/10/07 03:23:22;;;;;;;8.55;2.67;;;6.30;99.90;;;4.93;100.00;101814.47;4962801;28;20042;-87
2022/10/07 03:25:57;;;;;;;10.07;2.58;;;6.40;99.90;;;5.02;100.00;101824.34;4967095;28;20031;-87
2022/10/07 03:28:26;;;;;;;10.05;2.97;;;6.40;99.90;;;5.01;100.00;101816.41;4966327;28;20093;-86
2022/10/07 03:30:53;;;;;;;12.65;2.80;;;6.40;99.90;;;4.99;100.00;101816.56;4944446;28;20553;-86
2022/10/07 03:33:25;;;;;;;11.30;2.60;;;6.40;99.90;;;5.01;100.00;101809.13;4969314;28;20573;-87
2022/10/07 03:35:51;;;;;;;9.50;2.75;;;6.40;99.90;;;5.02;100.00;101800.03;4965155;28;20034;-86
2022/10/07 03:38:17;;;;;;;14.88;2.88;;;6.40;99.90;;;4.99;100.00;101803.03;4966078;28;20027;-89
2022/10/07 03:40:43;;;;;;;10.52;2.80;;;6.40;99.90;;;4.88;100.00;101798.69;4959455;28;20141;-87
2022/10/07 03:43:10;;;;;;;8.25;2.80;;;6.30;99.90;;;4.77;100.00;101793.47;4959714;28;20155;-88
2022/10/07 03:45:43;;;;;;;7.32;2.55;;;6.30;99.90;;;4.62;100.00;101795.84;4968446;28;20042;-86
2022/10/07 03:48:09;;;;;;;8.55;2.58;;;6.10;99.90;;;4.49;100.00;101795.31;4967225;28;20401;-88
2022/10/07 03:50:35;;;;;;;7.65;2.50;;;6.00;99.90;;;4.34;100.00;101798.50;4963476;28;20055;-87
2022/10/07 03:53:01;;;;;;;5.55;1.98;;;5.80;99.90;;;4.23;100.00;101790.56;4965219;28;20049;-89
2022/10/07 03:55:26;;;;;;;11.55;2.45;;;5.70;99.90;;;4.13;100.00;101791.44;4981226;28;20039;-86
2022/10/07 03:57:52;;;;;;;8.07;2.50;;;5.60;99.90;;;4.09;100.00;101784.63;4968803;28;20512;-86
2022/10/07 04:00:23;;;;;;;8.60;2.47;;;5.60;99.90;;;4.09;100.00;101784.63;4966091;28;20051;-88
2022/10/07 04:02:52;;;;;;;8.73;2.60;;;5.60;99.90;;;4.05;100.00;101788.63;4965734;28;20033;-87
2022/10/07 04:05:20;;;;;;;9.00;2.15;;;5.50;99.90;;;3.93;100.00;101776.28;4968306;28;20490;-87
2022/10/07 04:07:49;;;;;;;5.38;2.70;;;5.50;99.90;;;3.85;100.00;101767.06;4992484;28;20589;-84
2022/10/07 04:10:18;;;;;;;6.85;2.47;;;5.40;99.90;;;3.85;100.00;101782.44;4967476;28;20042;-86
2022/10/07 04:12:44;;;;;;;7.15;2.83;;;5.40;99.90;;;3.78;100.00;101779.44;4959641;28;20065;-86
2022/10/07 04:15:12;;;;;;;10.55;2.85;;;5.30;99.90;;;3.77;100.00;101769.66;4981081;28;20034;-87
2022/10/07 04:17:41;;;;;;;10.60;2.80;;;5.20;99.90;;;3.88;100.00;101774.03;4964919;28;20062;-87
2022/10/07 04:20:09;;;;;;;8.07;2.63;;;5.30;99.90;;;3.88;100.00;101774.88;4966900;28;20055;-86
2022/10/07 04:22:35;;;;;;;10.68;3.45;;;5.30;99.90;;;3.92;100.00;101767.34;4967492;28;20453;-86
2022/10/07 04:27:52;;;;;;;7.85;2.75;;;5.40;99.90;;;4.07;100.00;101766.88;4981155;28;20475;-84
2022/10/07 04:30:23;;;;;;;14.57;3.08;;;5.50;99.90;;;4.15;100.00;101775.13;4964788;28;20039;-85
2022/10/07 04:32:49;;;;;;;14.05;3.38;;;5.60;99.90;;;4.20;100.00;101769.25;4969391;28;20386;-84
2022/10/07 04:35:21;;;;;;;8.68;3.00;;;5.60;99.90;;;4.17;100.00;101768.53;4968014;28;20674;-84
2022/10/07 04:37:49;;;;;;;8.60;3.33;;;5.60;99.90;;;4.18;100.00;101766.72;4961028;28;20118;-83
2022/10/07 04:40:18;;;;;;;10.82;2.97;;;5.60;99.90;;;4.09;100.00;101760.34;4961834;28;20031;-84
2022/10/07 04:45:34;;;;;;;9.68;3.15;;;5.50;99.90;;;3.95;100.00;101766.19;4978382;28;20046;-81
2022/10/07 04:48:01;;;;;;;;;;;5.40;99.90;;;3.86;100.00;101766.06;4965434;28;20034;-81
2022/10/07 04:50:28;;;;;;;12.93;3.00;;;5.30;99.90;;;3.73;100.00;101755.56;4962970;28;20369;-81
2022/10/07 04:52:57;;;;;;;7.15;2.28;;;5.20;99.90;;;3.64;100.00;101763.69;4962648;28;20038;-82
2022/10/07 04:55:25;;;;;;;6.88;2.78;;;5.10;99.90;;;3.48;100.00;101751.63;4977309;28;20513;-83
2022/10/07 04:57:51;;;;;;;12.93;3.15;;;5.00;99.90;;;3.60;100.00;101758.56;4960710;28;20027;-83
2022/10/07 05:00:17;;;;;;;8.68;2.78;;;5.10;99.90;;;3.72;100.00;101758.44;4965647;28;20036;-81
2022/10/07 05:02:45;;;;;;;20.70;3.65;;;5.20;99.90;;;3.75;100.00;101755.44;4961691;28;20031;-81
2022/10/07 05:05:11;;;;;;;7.53;2.75;;;5.20;99.90;;;3.82;100.00;101751.16;4957029;28;20066;-83
2022/10/07 05:07:37;;;;;;;7.45;3.33;;;5.30;99.90;;;3.79;100.00;101745.19;4955789;28;20046;-82
2022/10/07 05:10:04;;;;;;;7.50;2.88;;;5.30;99.90;;;3.87;100.00;101748.88;4955870;28;20030;-83
2022/10/07 05:12:29;;;;;;;12.30;3.78;;;5.30;99.90;;;3.89;100.00;101749.56;4973395;28;20031;-82
2022/10/07 05:14:56;;;;;;;8.20;3.35;;;5.40;99.90;;;3.93;100.00;101742.03;4956112;28;20022;-80
2022/10/07 05:17:22;;;;;;;9.00;3.08;;;5.40;99.90;;;3.87;100.00;101745.34;4966640;28;20035;-80
2022/10/07 05:19:49;;;;;;;9.05;3.17;;;5.40;99.90;;;3.86;100.00;101741.78;4960196;28;20037;-86
2022/10/07 05:22:15;;;;;;;12.48;3.28;;;5.30;99.90;;;3.67;100.00;101731.88;4963016;28;20031;-87
2022/10/07 05:24:41;;;;;;;9.07;2.90;;;5.20;99.90;;;3.61;100.00;101732.44;4967967;28;20030;-88
2022/10/07 05:27:07;;;;;;;9.82;3.10;;;5.10;99.90;;;3.58;100.00;101743.50;4966682;28;20037;-88
2022/10/07 05:29:34;;;;;;;12.10;2.90;;;5.00;99.90;;;3.47;100.00;101740.97;4975756;28;20291;-86
2022/10/07 05:32:00;;;;;;;8.52;2.90;;;4.90;99.90;;;3.44;100.00;101739.41;4962580;28;20035;-88
2022/10/07 05:34:27;;;;;;;12.65;3.38;;;4.90;99.90;;;3.40;100.00;101738.84;4959693;28;20042;-80
2022/10/07 05:36:53;;;;;;;13.60;3.25;;;4.90;99.90;;;3.54;100.00;101748.38;4963161;28;20573;-86
2022/10/07 05:39:20;;;;;;;14.82;2.90;;;5.00;99.90;;;3.66;100.00;101732.88;4966353;28;20462;-86
2022/10/07 05:42:03;;;;;;;13.00;3.03;;;5.10;99.90;;;3.81;100.00;101732.41;4978496;28;20038;-85
2022/10/07 05:44:36;;;;;;;10.63;3.58;;;5.20;99.90;;;3.85;100.00;101723.03;4965460;28;20447;-86
2022/10/07 05:47:03;;;;;;;6.47;3.10;;;5.30;99.90;;;3.84;100.00;101721.31;4967584;28;20110;-86
2022/10/07 05:49:30;;;;;;;10.50;3.00;;;5.30;99.90;;;3.94;100.00;101723.97;4963770;28;20079;-83
2022/10/07 05:51:56;;;;;;;9.65;3.45;;;5.30;99.90;;;3.97;100.00;101731.78;4966419;28;20050;-83
2022/10/07 05:54:23;;;;;;;21.02;4.45;;;5.40;99.90;;;3.99;100.00;101732.53;4969530;28;20092;-83
2022/10/07 05:56:50;;;;;;;11.45;3.78;;;5.40;99.90;;;4.02;100.00;101729.53;4988656;28;20066;-85
2022/10/07 05:59:19;;;;;;;11.05;3.40;;;5.40;99.90;;;4.05;100.00;101726.53;4966246;28;20029;-85
2022/10/07 06:01:45;;;;;;;13.07;3.38;;;5.50;99.90;;;4.11;100.00;101719.66;4963377;28;20675;-84
2022/10/07 06:04:18;;;;;;;12.27;3.42;;;5.60;99.90;;;4.08;100.00;101692.94;4965473;28;20023;-84
2022/10/07 06:06:46;;;;;;;9.45;3.10;;;5.60;99.90;;;4.25;100.00;101712.94;4965378;28;20091;-85
2022/10/07 06:14:48;;;;;;;10.55;3.10;;;6.00;99.90;;;4.71;100.00;101703.00;4976649;28;20015;-82
2022/10/07 06:17:15;;;;;;;10.38;3.03;;;6.10;99.90;;;4.97;100.00;101720.34;4955702;28;20026;-82
2022/10/07 06:19:42;;;;;;;10.98;3.10;;;6.30;99.90;;;5.13;100.00;101706.13;4959868;28;20053;-83
2022/10/07 06:22:08;;;;;;;10.30;2.83;;;6.50;99.90;;;5.27;100.00;101713.69;4959043;28;20038;-85
2022/10/07 06:24:36;;;;;;;9.88;2.90;;;6.60;99.90;;;5.46;100.00;101714.53;4979029;28;20034;-85
2022/10/07 06:27:02;;;;;;;10.48;3.00;;;6.80;99.90;;;5.57;100.00;101711.59;4961150;28;20438;-84
2022/10/07 06:29:29;;;;;;;6.88;2.40;;;7.00;99.90;;;5.81;100.00;101718.16;4966393;28;20042;-86
2022/10/07 06:31:55;;;;;;;8.15;2.75;;;7.10;99.90;;;5.89;100.00;101702.00;4964275;28;20018;-85
2022/10/07 06:34:21;;;;;;;6.55;2.25;;;7.30;99.90;;;6.05;100.00;101703.09;4957850;28;20041;-85
2022/10/07 06:36:47;;;;;;;7.13;2.40;;;7.40;99.90;;;6.27;100.00;101712.56;4979485;28;20023;-85
2022/10/07 06:39:16;;;;;;;12.98;2.55;;;7.60;99.90;;;6.50;100.00;101713.81;4957559;28;20031;-87
2022/10/07 06:41:43;;;;;;;8.98;2.50;;;7.80;99.90;;;6.67;100.00;101709.31;4962929;28;20027;-80
2022/10/07 06:44:30;;;;;;;7.03;2.20;;;8.00;99.90;;;6.92;100.00;101712.94;4958685;28;20110;-83
2022/10/07 06:46:58;;;;;;;8.38;2.30;;;8.20;99.90;;;7.14;100.00;101716.00;4969128;28;20035;-83
2022/10/07 06:49:24;;;;;;;7.28;2.22;;;8.40;99.90;;;7.28;100.00;101718.06;4975155;28;20681;-83
2022/10/07 06:51:51;;;;;;;6.90;2.10;;;8.60;99.90;;;7.38;100.00;101708.91;4973014;28;20065;-81
2022/10/07 06:54:16;;;;;;;6.75;2.00;;;8.70;99.90;;;7.54;100.00;101711.63;4969472;28;20035;-82
2022/10/07 06:56:42;;;;;;;7.03;2.40;;;8.90;99.90;;;7.52;99.63;101685.63;4967197;28;20031;-83
2022/10/07 06:59:09;;;;;;;6.78;2.10;;;9.00;99.90;;;7.81;98.44;101712.28;4961337;28;20019;-85
2022/10/07 07:01:49;;;;;;;4.97;1.40;;;9.10;99.90;;;7.99;95.53;101712.06;4965126;28;20110;-86
2022/10/07 07:04:15;;;;;;;8.50;1.80;;;9.30;99.90;;;8.09;94.39;101700.13;4971978;28;20141;-84
2022/10/07 07:06:41;;;;;;;5.78;1.65;;;9.40;99.90;;;8.18;95.25;101708.09;4962788;28;20266;-86
2022/10/07 07:09:08;;;;;;;8.97;2.10;;;9.60;99.90;;;8.31;92.11;101712.13;4979015;28;20041;-84
2022/10/07 07:11:37;;;;;;;6.93;1.75;;;9.70;99.90;;;8.42;91.30;101714.47;4956102;28;20394;-85
2022/10/07 07:14:11;;;;;;;4.32;1.70;;;9.80;99.90;;;8.57;90.02;101711.03;4961244;28;20018;-85
2022/10/07 07:16:40;;;;;;;9.25;1.70;;;9.90;99.90;;;8.57;89.85;101703.72;4955226;28;20031;-87
2022/10/07 07:19:12;;;;;;;6.72;2.13;;;10.00;99.90;;;8.71;88.81;101712.16;4973537;28;20027;-86
2022/10/07 07:21:40;;;;;;;7.38;1.80;;;10.00;99.90;;;8.78;87.90;101702.25;4959039;28;20030;-87
2022/10/07 07:24:09;;;;;;;8.65;1.83;;;10.10;99.90;;;8.89;87.36;101704.59;4965459;28;20430;-85
2022/10/07 07:26:38;;;;;;;6.65;1.67;;;10.20;99.90;;;8.98;86.42;101709.97;4958362;28;20031;-85
2022/10/07 07:29:05;;;;;;;6.32;2.20;;;10.30;99.90;;;9.06;85.84;101702.59;4955105;28;20051;-83
2022/10/07 07:31:37;;;;;;;5.85;1.77;;;10.40;99.90;;;9.15;86.72;101702.53;4970910;28;20030;-85
2022/10/07 07:34:10;;;;;;;10.85;2.17;;;10.50;99.90;;;9.24;86.68;101700.59;4955492;28;20023;-86
2022/10/07 07:36:43;;;;;;;8.82;1.67;;;10.50;99.90;;;9.38;84.09;101693.50;4959648;28;20105;-84
2022/10/07 07:39:12;;;;;;;8.82;1.65;;;10.60;99.90;;;9.48;83.45;101702.25;4950175;28;20038;-85
2022/10/07 07:41:45;;;;;;;5.85;1.55;;;10.70;99.90;;;9.56;84.57;101698.63;4965122;28;20091;-83
2022/10/07 07:44:13;;;;;;;6.45;1.73;;;10.80;99.90;;;9.68;80.30;101699.00;4968713;28;20037;-85
2022/10/07 07:46:45;;;;;;;5.18;1.55;;;10.90;99.90;;;9.76;79.50;101704.38;4963854;28;20062;-84
2022/10/07 07:49:13;;;;;;;10.68;2.20;;;11.00;99.90;;;9.89;78.76;101696.41;4954006;28;20035;-87
2022/10/07 07:51:41;;;;;;;8.30;1.60;;;11.10;99.90;;;9.91;78.89;101690.75;4962177;28;20266;-87
2022/10/07 07:54:11;;;;;;;7.68;1.80;;;11.30;99.90;;;10.00;77.83;101686.06;4960181;28;20019;-87
2022/10/07 07:56:41;;;;;;;7.30;2.05;;;11.30;99.90;;;10.17;77.05;101701.22;4962967;28;20030;-86
2022/10/07 07:59:09;;;;;;;9.45;2.00;;;11.40;99.90;;;10.24;76.46;101695.00;4957475;28;20030;-84
2022/10/07 08:01:35;;;;;;;10.85;2.17;;;11.50;99.90;;;10.29;76.83;101698.88;4964084;28;20084;-89
2022/10/07 08:04:03;;;;;;;6.63;2.03;;;11.60;99.90;;;10.38;76.03;101693.31;4968868;28;20062;-86
2022/10/07 08:06:31;;;;;;;8.40;2.30;;;11.60;99.90;;;10.45;75.13;101694.25;4962461;28;20070;-87
2022/10/07 08:08:58;;;;;;;12.23;1.95;;;11.70;99.90;;;10.53;75.82;101682.38;4960106;28;20133;-83
2022/10/07 08:11:27;;;;;;;7.70;1.70;;;11.80;99.90;;;10.62;76.22;101684.81;4957809;28;20490;-88
2022/10/07 08:13:55;;;;;;;9.00;1.65;;;11.90;99.90;;;10.72;74.51;101681.78;4952997;28;20023;-87
2022/10/07 08:16:25;;;;;;;10.35;1.83;;;12.00;99.90;;;10.81;74.96;101679.78;4976755;28;20398;-86
2022/10/07 08:18:54;;;;;;;5.85;1.65;;;12.10;99.90;;;10.90;74.53;101681.34;4965172;28;20030;-84
2022/10/07 08:21:21;;;;;;;;;;;12.20;99.90;;;10.99;74.66;101682.06;4964582;28;20093;-84
2022/10/07 08:23:57;;;;;;;8.50;2.00;;;12.30;99.90;;;11.10;74.10;101671.66;4960860;28;19906;-84
2022/10/07 08:26:27;;;;;;;8.95;1.98;;;12.40;99.90;;;11.28;74.60;101682.16;4953445;28;20486;-84
2022/10/07 08:28:54;;;;;;;5.70;1.88;;;12.50;99.90;;;11.36;72.32;101671.91;4957151;28;20059;-79
2022/10/07 08:31:21;;;;;;;6.22;1.90;;;12.60;99.90;;;11.37;72.10;101662.66;4954206;28;20015;-81
2022/10/07 08:33:48;;;;;;;7.03;1.50;;;12.70;99.90;;;11.49;71.60;101671.16;4959301;28;20471;-81
2022/10/07 08:36:18;;;;;;;12.23;2.13;;;12.80;99.90;;;11.53;72.27;101666.16;4978614;28;20027;-80
2022/10/07 08:38:45;;;;;;;6.82;1.95;;;12.80;99.90;;;11.71;71.83;101673.03;4961998;28;20287;-81
2022/10/07 08:41:57;;;;;;;10.15;1.70;;;13.00;99.90;;;11.86;70.73;101670.19;4962459;28;20046;-81
2022/10/07 08:44:40;;;;;;;5.85;2.17;;;13.10;99.90;;;11.88;70.09;101649.78;4959542;28;20031;-82
2022/10/07 08:47:29;;;;;;;9.90;2.40;;;13.30;99.90;;;12.10;70.21;101666.13;4957828;28;20034;-84
2022/10/07 08:50:38;;;;;;;6.63;1.80;;;13.30;99.90;;;12.18;69.65;101663.22;4954527;28;20513;-79
2022/10/07 08:53:14;;;;;;;6.93;1.95;;;13.40;99.90;;;12.16;68.83;101645.34;4981168;28;20062;-80
2022/10/07 08:56:12;;;;;;;10.30;2.60;;;13.50;99.90;;;12.40;68.21;101660.38;4961172;28;20081;-80
2022/10/07 08:59:22;;;;;;;8.20;2.10;;;13.60;99.90;;;12.43;68.17;101653.66;4956665;28;20093;-79
2022/10/07 09:02:24;;;;;;;6.47;1.98;;;13.70;99.90;;;12.60;68.65;101660.47;4953203;28;20102;-80
2022/10/07 09:05:21;;;;;;;11.35;2.47;;;13.80;99.90;;;12.73;68.22;101648.72;4959649;28;20274;-81
2022/10/07 09:07:56;;;;;;;6.00;1.98;;;14.00;99.90;;;12.94;68.26;101644.97;4964051;28;20046;-81
2022/10/07 09:10:34;;;;;;;5.90;1.70;;;14.20;99.90;;;13.19;66.96;101638.03;4958714;28;20114;-81
2022/10/07 09:13:34;;;;;;;9.05;2.00;;;14.40;99.90;;;13.33;64.31;101636.97;4956303;28;20054;-81
2022/10/07 09:16:12;;;;;;;7.45;1.35;;;14.50;99.90;;;13.43;64.43;101639.34;4959448;28;20434;-83
2022/10/07 09:18:49;;;;;;;7.18;1.50;;;14.60;99.90;;;13.55;65.42;101620.34;4960365;28;20098;-79
2022/10/07 09:21:42;;;;;;;6.40;1.48;;;14.80;99.90;;;13.75;63.86;101630.41;4962380;28;20035;-78
2022/10/07 09:24:24;;;;;;;8.25;1.60;;;15.00;99.90;;;13.91;63.51;101621.72;4962808;28;20190;-78
2022/10/07 09:26:58;;;;;;;6.72;1.00;;;15.10;99.90;;;14.21;64.66;101626.69;4961727;28;20036;-80
2022/10/07 09:29:27;;;;;;;9.43;1.58;;;15.40;99.90;;;14.39;62.25;101620.47;4960874;28;20035;-79
2022/10/07 09:31:55;;;;;;;6.78;1.15;;;15.50;99.90;;;14.42;61.16;101613.72;4958521;28;20053;-80
2022/10/07 09:34:26;;;;;;;6.82;1.25;;;15.70;99.90;;;14.40;58.61;101615.84;4956150;28;20477;-79
2022/10/07 09:37:18;;;;;;;8.25;1.92;;;15.70;99.90;;;14.69;58.58;101610.81;4961150;28;20031;-82
2022/10/07 09:39:50;;;;;;;4.97;1.10;;;16.00;99.50;;;14.84;57.27;101605.06;4965602;28;20034;-81
2022/10/07 09:42:42;;;;;;;8.27;1.67;;;16.60;97.00;;;15.34;55.43;101601.47;4965147;28;20034;-79
2022/10/07 09:45:30;;;;;;;4.30;1.40;;;17.30;94.50;;;15.80;54.98;101603.97;4965151;28;20875;-80
2022/10/07 09:48:06;;;;;;;5.97;1.15;;;18.10;93.20;;;16.43;52.98;101592.88;4958463;28;20034;-78
2022/10/07 09:50:42;;;;;;;4.95;1.30;;;18.90;91.00;;;16.90;51.46;101594.91;4959210;28;20819;-79
2022/10/07 09:53:30;;;;;;;7.53;1.02;;;19.60;88.20;;;17.62;49.24;101593.91;4964398;28;20025;-80
2022/10/07 09:55:57;;;;;;;6.05;1.70;;;20.10;82.10;;;19.14;45.77;101593.00;4960074;28;20027;-79
2022/10/07 09:58:29;;;;;;;8.57;1.38;;;20.80;80.00;;;20.40;42.95;101592.50;4964134;28;20066;-79
2022/10/07 10:00:58;;;;;;;5.90;1.40;;;21.40;77.70;;;20.63;42.36;101591.38;4958154;28;20026;-82
2022/10/07 10:03:34;;;;;;;8.65;1.63;;;21.60;75.60;;;22.24;37.21;101587.72;4963777;28;20030;-80
2022/10/07 10:06:08;;;;;;;6.88;1.40;;;22.40;70.80;;;20.72;40.64;101588.97;4956435;28;20034;-79
2022/10/07 10:08:41;;;;;;;7.65;1.48;;;22.00;71.70;;;21.29;40.71;101586.69;4968204;28;20046;-79
2022/10/07 10:11:19;;;;;;;4.95;1.10;;;21.90;72.70;;;21.92;37.98;101588.72;4970502;28;20039;-78
2022/10/07 10:13:49;;;;;;;4.30;1.25;;;22.40;70.40;;;21.50;38.41;101593.19;4963709;28;20549;-79
2022/10/07 10:16:23;;;;;;;5.53;1.27;;;22.20;70.50;;;21.62;39.06;101584.66;4967187;28;20039;-80
2022/10/07 10:19:01;;;;;;;6.50;1.48;;;21.90;72.00;;;21.31;39.83;101578.94;4961490;28;20039;-79
2022/10/07 10:21:35;;;;;;;4.93;1.48;;;21.90;70.40;;;22.75;36.86;101577.84;4960178;28;20038;-79
2022/10/07 10:24:13;;;;;;;6.80;1.60;;;22.50;70.30;;;21.89;37.54;101572.59;4964860;28;20035;-80
2022/10/07 10:27:08;;;;;;;5.10;1.37;;;22.60;68.50;;;21.87;38.44;101569.28;4963106;28;20045;-79
2022/10/07 10:30:01;;;;;;;6.80;1.52;;;22.40;70.10;;;21.99;37.64;101557.94;4963692;28;20035;-80
2022/10/07 10:32:37;;;;;;;6.53;1.50;;;;;;;23.25;35.83;101557.81;4962250;28;20033;-79
2022/10/07 10:35:28;;;;;;;6.95;1.48;;;;;;;23.40;36.76;101554.16;4961526;28;20031;-79
2022/10/07 10:38:07;;;;;;;6.63;1.30;;;22.40;68.80;;;24.07;34.75;101548.38;4966923;28;20073;-80
2022/10/07 10:40:46;;;;;;;7.25;1.38;;;;;;;24.92;33.04;101553.94;4961904;28;20046;-80
2022/10/07 10:43:29;;;;;;;5.55;1.35;;;;;;;24.81;33.29;101550.41;4967427;28;20453;-79
2022/10/07 10:46:22;;;;;;;8.23;1.98;;;;;;;24.12;34.27;101550.28;4962328;28;20042;-79
2022/10/07 10:48:52;;;;;;;5.25;1.30;;;;;;;24.81;33.48;101546.81;4966720;28;20088;-79
2022/10/07 10:52:07;;;;;;;7.22;1.80;;;24.50;65.20;;;24.51;32.34;101549.50;4965665;28;20050;-83
2022/10/07 10:54:54;;;;;;;7.25;1.63;;;;;;;25.43;31.80;101535.84;4977991;28;20395;-83